Time;durP1;ratioP1;P1;durP2;ratioP2;P2;SDS_P1;SDS_P2;PMS_P1;PMS_P2;Temp;Humidity;BMP_temperature;BMP_pressure;BME280_temperature;BME280_humidity;BME280_pressure;Samples;Min_cycle;Max_cycle;Signal;HPM_P1;HPM_P2
2023/10/22 00:02:10;;;;;;;0.60;0.60;;;3.30;99.90;;;;;;5109972;28;20195;-71
2023/10/22 00:04:38;;;;;;;0.60;0.60;;;3.30;99.90;;;;;;5109611;28;20706;-73
2023/10/22 00:07:04;;;;;;;0.50;0.50;;;3.30;99.90;;;;;;5110053;28;20187;-71
2023/10/22 00:09:30;;;;;;;0.50;0.50;;;3.30;99.90;;;;;;5079136;28;20200;-72
2023/10/22 00:11:55;;;;;;;0.60;0.60;;;3.30;99.90;;;;;;5089402;28;20224;-71
2023/10/22 00:14:21;;;;;;;0.47;0.47;;;3.30;99.90;;;;;;5089294;28;20188;-72
2023/10/22 00:16:47;;;;;;;0.80;0.80;;;3.30;99.90;;;;;;5099769;28;20199;-71
2023/10/22 00:19:13;;;;;;;0.63;0.63;;;3.30;99.90;;;;;;5109592;28;20187;-72
2023/10/22 00:21:38;;;;;;;0.55;0.55;;;3.40;99.90;;;;;;5109236;28;20187;-71
2023/10/22 00:24:04;;;;;;;0.60;0.60;;;3.30;99.90;;;;;;5109580;28;20196;-71
2023/10/22 00:26:30;;;;;;;0.60;0.60;;;3.40;99.90;;;;;;5109160;28;20566;-72
2023/10/22 00:28:55;;;;;;;0.60;0.60;;;3.40;99.90;;;;;;5109796;28;20188;-72
2023/10/22 00:31:21;;;;;;;0.60;0.60;;;3.40;99.90;;;;;;5109552;28;20589;-71
2023/10/22 00:33:47;;;;;;;0.50;0.50;;;3.40;99.90;;;;;;5109422;28;20203;-71
2023/10/22 00:36:13;;;;;;;0.60;0.60;;;3.40;99.90;;;;;;5109684;28;20188;-71
2023/10/22 00:38:38;;;;;;;0.60;0.60;;;3.40;99.90;;;;;;5109363;28;20207;-72
2023/10/22 00:41:04;;;;;;;0.60;0.60;;;3.40;99.90;;;;;;5109306;28;20302;-72
2023/10/22 00:43:30;;;;;;;0.60;0.60;;;3.40;99.90;;;;;;5109536;28;20624;-71
2023/10/22 00:45:55;;;;;;;0.80;0.80;;;3.40;99.90;;;;;;5109261;28;20202;-71
2023/10/22 00:48:22;;;;;;;0.60;0.60;;;3.40;99.90;;;;;;5090816;28;20227;-72
2023/10/22 00:50:48;;;;;;;0.60;0.60;;;3.40;99.90;;;;;;5109257;28;20708;-71
2023/10/22 00:53:16;;;;;;;0.50;0.50;;;3.50;99.90;;;;;;5106807;28;20662;-72
2023/10/22 00:55:47;;;;;;;0.80;0.80;;;3.50;99.90;;;;;;5088727;28;20600;-71
2023/10/22 00:58:14;;;;;;;0.60;0.60;;;3.40;99.90;;;;;;5088738;28;20711;-71
2023/10/22 01:00:40;;;;;;;0.60;0.60;;;3.40;99.90;;;;;;5070327;28;20272;-71
2023/10/22 01:03:06;;;;;;;0.60;0.60;;;3.40;99.90;;;;;;5088824;28;20204;-71
2023/10/22 01:05:36;;;;;;;0.68;0.68;;;3.40;99.90;;;;;;5088364;28;20674;-71
2023/10/22 01:08:02;;;;;;;0.52;0.52;;;3.50;99.90;;;;;;5088457;28;20200;-69
2023/10/22 01:10:28;;;;;;;0.60;0.60;;;3.40;99.90;;;;;;5088123;28;20210;-69
2023/10/22 01:12:54;;;;;;;0.70;0.70;;;3.40;99.90;;;;;;5097912;28;20216;-69
2023/10/22 01:15:19;;;;;;;0.50;0.50;;;3.40;99.90;;;;;;5108402;28;20650;-70
2023/10/22 01:17:45;;;;;;;0.60;0.60;;;3.40;99.90;;;;;;5108715;28;20586;-69
2023/10/22 01:20:11;;;;;;;0.55;0.55;;;3.40;99.90;;;;;;5108729;28;20195;-69
2023/10/22 01:22:36;;;;;;;0.70;0.70;;;3.40;99.90;;;;;;5109236;28;20274;-71
2023/10/22 01:25:03;;;;;;;0.60;0.60;;;3.40;99.90;;;;;;5108754;28;21026;-70
2023/10/22 01:27:32;;;;;;;0.52;0.52;;;3.50;99.90;;;;;;5107873;28;20196;-69
2023/10/22 01:29:58;;;;;;;0.60;0.60;;;3.40;99.90;;;;;;5109437;28;20596;-71
2023/10/22 01:32:24;;;;;;;0.60;0.60;;;3.40;99.90;;;;;;5108713;28;20211;-71
2023/10/22 01:34:50;;;;;;;0.60;0.60;;;3.40;99.90;;;;;;5108849;28;20196;-68
2023/10/22 01:37:15;;;;;;;0.60;0.60;;;3.50;99.90;;;;;;5110371;27;20231;-70
2023/10/22 01:39:41;;;;;;;0.70;0.70;;;3.40;99.90;;;;;;5108722;28;20237;-70
2023/10/22 01:42:07;;;;;;;0.70;0.70;;;3.50;99.90;;;;;;5108741;28;20279;-70
2023/10/22 01:44:32;;;;;;;0.63;0.63;;;3.40;99.90;;;;;;5108571;28;20262;-69
2023/10/22 01:46:58;;;;;;;0.60;0.60;;;3.40;99.90;;;;;;5090443;28;20200;-69
2023/10/22 01:49:23;;;;;;;0.60;0.60;;;3.40;99.90;;;;;;5108525;28;20232;-71
2023/10/22 01:51:49;;;;;;;0.50;0.50;;;3.40;99.90;;;;;;5111841;28;20216;-70
2023/10/22 01:54:15;;;;;;;0.52;0.52;;;3.50;99.90;;;;;;5109663;28;20286;-70
2023/10/22 01:56:40;;;;;;;0.50;0.50;;;3.50;99.90;;;;;;5092184;28;20660;-69
2023/10/22 01:59:06;;;;;;;0.57;0.57;;;3.50;99.90;;;;;;5092056;28;20275;-71
2023/10/22 02:01:32;;;;;;;0.60;0.60;;;3.40;99.90;;;;;;5091701;28;20200;-70
2023/10/22 02:04:01;;;;;;;0.50;0.50;;;3.50;99.90;;;;;;5091708;28;20215;-69
2023/10/22 02:06:27;;;;;;;0.55;0.55;;;3.40;99.90;;;;;;5091658;28;20711;-69
2023/10/22 02:08:52;;;;;;;0.60;0.60;;;3.40;99.90;;;;;;5098822;28;20309;-69
2023/10/22 02:11:19;;;;;;;0.57;0.57;;;3.50;99.90;;;;;;5111956;28;20211;-70
2023/10/22 02:13:44;;;;;;;0.63;0.57;;;3.50;99.90;;;;;;5093661;28;20211;-71
2023/10/22 02:16:10;;;;;;;0.40;0.40;;;3.50;99.90;;;;;;5112382;28;20214;-69
2023/10/22 02:18:36;;;;;;;0.60;0.60;;;3.50;99.90;;;;;;5112942;28;20282;-70
2023/10/22 02:21:03;;;;;;;0.60;0.60;;;3.50;99.90;;;;;;5111922;28;20206;-70
2023/10/22 02:23:29;;;;;;;0.60;0.60;;;3.50;99.90;;;;;;5111668;28;20202;-69
2023/10/22 02:25:55;;;;;;;0.50;0.50;;;3.50;99.90;;;;;;5111809;28;20274;-68
2023/10/22 02:28:21;;;;;;;0.60;0.60;;;3.50;99.90;;;;;;5111601;28;20206;-68
2023/10/22 02:30:50;;;;;;;0.60;0.60;;;3.50;99.90;;;;;;5111502;28;20291;-69
2023/10/22 02:33:17;;;;;;;0.80;0.80;;;3.50;99.90;;;;;;5096298;28;20211;-71
2023/10/22 02:35:44;;;;;;;0.70;0.70;;;3.50;99.90;;;;;;5100247;28;20270;-68
2023/10/22 02:38:13;;;;;;;0.60;0.60;;;3.50;99.90;;;;;;5111483;28;20191;-68
2023/10/22 02:41:00;;;;;;;0.60;0.60;;;3.50;99.90;;;;;;5111682;28;20187;-70
2023/10/22 02:43:26;;;;;;;0.65;0.65;;;3.50;99.90;;;;;;5092999;28;20238;-70
2023/10/22 02:45:53;;;;;;;0.60;0.60;;;3.50;99.90;;;;;;5111198;28;20226;-67
2023/10/22 02:48:19;;;;;;;0.65;0.65;;;3.50;99.90;;;;;;5111174;28;20244;-67
2023/10/22 02:50:45;;;;;;;0.47;0.47;;;3.50;99.90;;;;;;5093256;28;20206;-67
2023/10/22 02:53:10;;;;;;;0.60;0.60;;;3.50;99.90;;;;;;5111373;28;20208;-70
2023/10/22 02:55:36;;;;;;;0.68;0.68;;;3.60;99.90;;;;;;5110946;28;20198;-70
2023/10/22 02:58:02;;;;;;;0.60;0.60;;;3.60;99.90;;;;;;5100558;28;20215;-69
2023/10/22 03:00:28;;;;;;;0.60;0.60;;;3.60;99.90;;;;;;5075705;28;20213;-68
2023/10/22 03:02:53;;;;;;;0.60;0.60;;;3.60;99.90;;;;;;5108917;28;20195;-69
2023/10/22 03:05:19;;;;;;;0.50;0.50;;;3.70;99.90;;;;;;5110555;28;20213;-69
2023/10/22 03:07:45;;;;;;;0.55;0.55;;;3.60;99.90;;;;;;5111315;28;20791;-69
2023/10/22 03:11:30;;;;;;;;;;;;;;;;;;;;;
2023/10/22 03:13:43;;;;;;;0.45;0.45;;;3.60;99.90;;;;;;5000713;28;20315;-70
2023/10/22 03:16:15;;;;;;;0.70;0.70;;;3.60;99.90;;;;;;5007117;28;20733;-68
2023/10/22 03:18:42;;;;;;;0.57;0.57;;;3.60;99.90;;;;;;5082106;28;20612;-70
2023/10/22 03:24:40;;;;;;;0.60;0.60;;;3.60;99.90;;;;;;5091206;28;20231;-69
2023/10/22 03:27:05;;;;;;;0.55;0.55;;;3.60;99.90;;;;;;5007514;28;20265;-68
2023/10/22 03:29:34;;;;;;;0.60;0.60;;;3.60;99.90;;;;;;5022373;28;20618;-70
2023/10/22 03:32:23;;;;;;;0.57;0.57;;;3.60;99.90;;;;;;5028008;28;20201;-69
2023/10/22 03:34:49;;;;;;;0.57;0.57;;;3.60;99.90;;;;;;5027790;28;20230;-68
2023/10/22 03:37:14;;;;;;;0.60;0.60;;;3.70;99.90;;;;;;5028807;28;20217;-69
2023/10/22 03:39:41;;;;;;;0.70;0.70;;;3.60;99.90;;;;;;5027272;28;20241;-68
2023/10/22 03:42:06;;;;;;;0.60;0.60;;;3.70;99.90;;;;;;5011495;28;20245;-70
2023/10/22 03:44:33;;;;;;;0.52;0.52;;;3.70;99.90;;;;;;5028007;28;20674;-66
2023/10/22 03:57:46;;;;;;;0.60;0.60;;;3.60;99.90;;;;;;4917856;29;20373;-71
2023/10/22 04:00:12;;;;;;;0.60;0.60;;;3.60;99.90;;;;;;4935326;28;20292;-71
2023/10/22 04:02:38;;;;;;;0.50;0.50;;;3.60;99.90;;;;;;4984845;28;20972;-70
2023/10/22 04:05:05;;;;;;;0.50;0.50;;;3.60;99.90;;;;;;4987627;28;20266;-71
2023/10/22 04:07:31;;;;;;;0.70;0.70;;;3.70;99.90;;;;;;4987525;28;20217;-68
2023/10/22 04:09:57;;;;;;;0.50;0.50;;;3.70;99.90;;;;;;4987945;28;20785;-69
2023/10/22 04:12:22;;;;;;;0.52;0.52;;;3.70;99.90;;;;;;4987574;28;20207;-69
2023/10/22 04:14:48;;;;;;;0.70;0.70;;;3.70;99.90;;;;;;4989036;28;20245;-72
2023/10/22 04:17:52;;;;;;;0.60;0.60;;;3.70;99.90;;;;;;4971487;28;20717;-71
2023/10/22 04:20:20;;;;;;;0.70;0.70;;;3.70;99.90;;;;;;4950555;28;20219;-69
2023/10/22 04:23:39;;;;;;;0.60;0.60;;;3.70;99.90;;;;;;4968426;28;20723;-71
2023/10/22 04:26:53;;;;;;;0.68;0.68;;;3.70;99.90;;;;;;4952362;28;20715;-71
2023/10/22 04:29:19;;;;;;;0.63;0.63;;;3.70;99.90;;;;;;4977227;28;20235;-71
2023/10/22 04:32:29;;;;;;;1.15;0.90;;;3.70;99.90;;;;;;4971037;28;20253;-71
2023/10/22 04:34:55;;;;;;;0.68;0.68;;;3.70;99.90;;;;;;4981489;28;20313;-71
2023/10/22 04:38:50;;;;;;;0.50;0.50;;;3.80;99.90;;;;;;4990577;28;20215;-70
2023/10/22 04:41:12;;;;;;;0.60;0.60;;;3.80;99.90;;;;;;4909239;29;20244;-72
2023/10/22 04:43:38;;;;;;;0.50;0.50;;;3.70;99.90;;;;;;4981800;28;20214;-71
2023/10/22 04:46:03;;;;;;;0.57;0.57;;;3.80;99.90;;;;;;4986753;28;20622;-71
2023/10/22 04:55:56;;;;;;;0.77;0.77;;;3.70;99.90;;;;;;4911051;29;20717;-70
2023/10/22 04:58:27;;;;;;;0.52;0.52;;;3.80;99.90;;;;;;4944459;28;20429;-71
2023/10/22 05:00:54;;;;;;;0.60;0.60;;;3.70;99.90;;;;;;4977117;28;20234;-70
2023/10/22 05:03:20;;;;;;;0.68;0.68;;;3.70;99.90;;;;;;5026312;28;20767;-70
2023/10/22 05:09:27;;;;;;;0.50;0.50;;;3.70;99.90;;;;;;5006504;28;20576;-72
2023/10/22 05:11:53;;;;;;;0.60;0.60;;;3.70;99.90;;;;;;5025964;28;20210;-72
2023/10/22 05:15:16;;;;;;;0.52;0.52;;;3.70;99.90;;;;;;5026405;28;20214;-72
2023/10/22 05:17:41;;;;;;;0.55;0.55;;;3.70;99.90;;;;;;4966255;28;20211;-72
2023/10/22 05:20:07;;;;;;;0.57;0.57;;;3.80;99.90;;;;;;4986685;28;20196;-72
2023/10/22 05:26:12;;;;;;;0.50;0.50;;;3.70;99.90;;;;;;4951200;28;20223;-68
2023/10/22 05:28:39;;;;;;;3.30;1.48;;;3.70;99.90;;;;;;4953143;29;20582;-69
2023/10/22 05:31:54;;;;;;;0.65;0.65;;;3.70;99.90;;;;;;4980868;28;20631;-72
2023/10/22 05:37:52;;;;;;;0.50;0.50;;;3.80;99.90;;;;;;4989172;28;20839;-71
2023/10/22 05:43:56;;;;;;;0.80;0.80;;;3.80;99.90;;;;;;5012393;28;20612;-69
2023/10/22 05:46:44;;;;;;;0.60;0.60;;;3.80;99.90;;;;;;5019347;28;20575;-71
2023/10/22 05:53:19;;;;;;;0.90;0.90;;;3.80;99.90;;;;;;4897223;29;20225;-71
2023/10/22 05:59:57;;;;;;;0.50;0.50;;;3.80;99.90;;;;;;4934125;29;20720;-70
2023/10/22 06:03:03;;;;;;;0.60;0.60;;;3.80;99.90;;;;;;4933656;29;20229;-69
2023/10/22 06:09:47;;;;;;;0.43;0.43;;;3.80;99.90;;;;;;4897179;29;20211;-72
2023/10/22 06:16:02;;;;;;;0.55;0.55;;;3.80;99.90;;;;;;4881329;29;20707;-70
2023/10/22 06:19:17;;;;;;;0.60;0.60;;;3.80;99.90;;;;;;4910699;29;20230;-69
2023/10/22 06:29:15;;;;;;;0.60;0.60;;;3.80;99.90;;;;;;4859763;29;20199;-68
2023/10/22 06:32:17;;;;;;;0.50;0.50;;;3.80;99.90;;;;;;4894757;29;20726;-72
2023/10/22 06:39:15;;;;;;;0.50;0.50;;;3.90;99.90;;;;;;4895222;29;20620;-71
2023/10/22 06:45:19;;;;;;;0.50;0.50;;;3.90;99.90;;;;;;4773391;30;20595;-70
2023/10/22 06:47:48;;;;;;;0.43;0.43;;;4.00;99.90;;;;;;4729563;30;20575;-71
2023/10/22 06:50:41;;;;;;;0.60;0.60;;;4.00;99.90;;;;;;4774458;30;20265;-70
2023/10/22 06:53:06;;;;;;;0.70;0.70;;;4.00;99.90;;;;;;4783668;29;20254;-70
2023/10/22 06:56:05;;;;;;;1.35;1.25;;;4.00;99.90;;;;;;4801390;29;20274;-70
2023/10/22 06:58:57;;;;;;;0.60;0.60;;;4.10;99.90;;;;;;4820484;29;20655;-73
2023/10/22 07:01:23;;;;;;;0.52;0.52;;;4.10;99.90;;;;;;4816718;29;20221;-72
2023/10/22 07:03:48;;;;;;;0.70;0.70;;;4.10;99.90;;;;;;4819295;29;20224;-72
2023/10/22 07:06:57;;;;;;;0.47;0.47;;;4.20;99.90;;;;;;4819280;29;20305;-72
2023/10/22 07:10:26;;;;;;;0.73;0.73;;;4.30;99.90;;;;;;4833703;29;20641;-71
2023/10/22 07:12:53;;;;;;;0.68;0.68;;;4.30;99.90;;;;;;4825169;29;20362;-68
2023/10/22 07:15:49;;;;;;;0.57;0.57;;;4.30;99.90;;;;;;4886358;29;20293;-69
2023/10/22 07:21:15;;;;;;;0.50;0.50;;;4.30;99.90;;;;;;4940942;28;20420;-68
2023/10/22 07:24:08;;;;;;;0.60;0.60;;;4.30;99.90;;;;;;4989659;28;20210;-70
2023/10/22 07:26:55;;;;;;;0.60;0.60;;;4.30;99.90;;;;;;4973256;28;20211;-69
2023/10/22 07:29:24;;;;;;;0.50;0.50;;;4.30;99.90;;;;;;4972928;28;20227;-70
2023/10/22 07:39:53;;;;;;;0.60;0.60;;;4.30;99.90;;;;;;4874927;29;20230;-70
2023/10/22 07:43:01;;;;;;;0.60;0.60;;;4.40;99.90;;;;;;4877787;29;20835;-74
2023/10/22 07:48:47;;;;;;;0.65;0.65;;;4.40;99.90;;;;;;4864018;29;20308;-73
2023/10/22 07:51:47;;;;;;;0.60;0.60;;;4.40;99.90;;;;;;4855011;29;20252;-73
2023/10/22 07:54:24;;;;;;;0.60;0.60;;;4.40;99.90;;;;;;4887328;29;20233;-74
2023/10/22 07:57:40;;;;;;;0.60;0.60;;;4.40;99.90;;;;;;4912265;29;20249;-73
2023/10/22 08:00:49;;;;;;;0.70;0.70;;;4.40;99.90;;;;;;4895072;29;20207;-73
2023/10/22 08:03:14;;;;;;;0.70;0.70;;;4.40;99.90;;;;;;4893030;29;20230;-73
2023/10/22 08:06:29;;;;;;;0.55;0.55;;;4.40;99.90;;;;;;4926941;29;20728;-73
2023/10/22 08:08:56;;;;;;;0.60;0.60;;;4.40;99.90;;;;;;4906666;29;20221;-73
2023/10/22 08:11:24;;;;;;;1.33;1.20;;;4.50;99.90;;;;;;4950039;29;20220;-72
2023/10/22 08:13:53;;;;;;;0.50;0.50;;;4.50;99.90;;;;;;4957702;28;20212;-71
2023/10/22 08:16:19;;;;;;;0.80;0.80;;;4.50;99.90;;;;;;4951879;28;20212;-72
2023/10/22 08:18:48;;;;;;;0.50;0.50;;;4.60;99.90;;;;;;4968100;28;20268;-71
2023/10/22 08:21:28;;;;;;;0.60;0.60;;;4.60;99.90;;;;;;4953335;28;20381;-71
2023/10/22 08:23:54;;;;;;;0.60;0.60;;;4.60;99.90;;;;;;4954022;28;20200;-72
2023/10/22 08:26:47;;;;;;;0.55;0.55;;;4.60;99.90;;;;;;4970616;28;20379;-71
2023/10/22 08:29:18;;;;;;;0.50;0.50;;;4.60;99.90;;;;;;4969175;28;20773;-72
2023/10/22 08:32:15;;;;;;;0.60;0.60;;;4.60;99.90;;;;;;4968384;28;20270;-72
2023/10/22 08:35:06;;;;;;;0.50;0.50;;;4.60;99.90;;;;;;4968484;28;20208;-71
2023/10/22 08:37:50;;;;;;;0.50;0.50;;;4.70;99.90;;;;;;4971034;28;20235;-73
2023/10/22 08:40:16;;;;;;;0.70;0.70;;;4.70;99.90;;;;;;4970185;28;20202;-72
2023/10/22 08:42:44;;;;;;;0.70;0.70;;;4.70;99.90;;;;;;4969000;28;20199;-72
2023/10/22 08:45:10;;;;;;;0.60;0.60;;;4.80;99.90;;;;;;5056727;28;20690;-73
2023/10/22 08:47:45;;;;;;;0.60;0.60;;;4.80;99.90;;;;;;5071891;28;20279;-73
2023/10/22 08:50:11;;;;;;;0.60;0.60;;;4.90;99.90;;;;;;5085186;28;20237;-71
2023/10/22 08:52:37;;;;;;;0.60;0.60;;;4.90;99.90;;;;;;5109094;28;20601;-73
2023/10/22 08:55:03;;;;;;;0.70;0.70;;;4.90;99.90;;;;;;5090569;28;20203;-72
2023/10/22 08:57:30;;;;;;;0.65;0.65;;;4.90;99.90;;;;;;5108790;28;20611;-72
2023/10/22 09:00:18;;;;;;;0.60;0.60;;;5.00;99.90;;;;;;5111351;28;20586;-73
2023/10/22 09:02:43;;;;;;;0.70;0.70;;;5.00;99.90;;;;;;5115343;27;20252;-72
2023/10/22 09:05:10;;;;;;;0.50;0.50;;;5.10;99.90;;;;;;5094126;28;20584;-71
2023/10/22 09:08:17;;;;;;;1.20;1.13;;;5.20;99.90;;;;;;5092749;28;20192;-73
2023/10/22 09:11:20;;;;;;;0.60;0.60;;;5.20;99.90;;;;;;5094013;28;20632;-71
2023/10/22 09:17:16;;;;;;;0.60;0.60;;;5.40;99.90;;;;;;5007423;28;20681;-72
2023/10/22 09:19:52;;;;;;;0.50;0.50;;;5.50;99.90;;;;;;5071455;28;20207;-67
2023/10/22 09:23:19;;;;;;;;;;;;;;;;;;;;;
2023/10/22 09:26:17;;;;;;;0.70;0.70;;;5.50;99.90;;;;;;5012574;28;20219;-73
2023/10/22 09:29:26;;;;;;;0.60;0.60;;;5.50;99.90;;;;;;5019916;28;20248;-73
2023/10/22 09:31:55;;;;;;;0.52;0.52;;;5.50;99.90;;;;;;5061660;28;20199;-69
2023/10/22 09:34:52;;;;;;;0.60;0.60;;;5.70;99.90;;;;;;5114175;28;20200;-68
2023/10/22 09:37:58;;;;;;;0.70;0.70;;;5.80;99.90;;;;;;5094931;28;20295;-68
2023/10/22 09:40:38;;;;;;;0.57;0.57;;;5.90;99.90;;;;;;5012283;28;20195;-68
2023/10/22 09:43:04;;;;;;;0.70;0.70;;;5.90;99.90;;;;;;4994452;28;20214;-72
2023/10/22 09:48:17;;;;;;;0.80;0.80;;;5.90;99.90;;;;;;4980499;28;20722;-69
2023/10/22 09:51:31;;;;;;;0.70;0.70;;;5.90;99.90;;;;;;5001752;28;20266;-69
2023/10/22 10:00:44;;;;;;;0.60;0.60;;;6.10;99.90;;;;;;4973201;28;20223;-71
2023/10/22 10:07:07;;;;;;;0.60;0.60;;;6.20;99.90;;;;;;4950867;28;20212;-70
2023/10/22 10:10:00;;;;;;;0.60;0.60;;;6.30;99.90;;;;;;4894079;29;20226;-72
2023/10/22 10:12:28;;;;;;;0.60;0.60;;;6.20;99.90;;;;;;4989012;28;20584;-71
2023/10/22 10:15:54;;;;;;;0.60;0.60;;;6.20;99.90;;;;;;5086861;28;20196;-73
2023/10/22 10:21:52;;;;;;;0.60;0.60;;;6.20;99.90;;;;;;5016961;28;20801;-74
2023/10/22 10:24:25;;;;;;;0.50;0.50;;;6.20;99.90;;;;;;5028636;28;20665;-72
2023/10/22 10:27:16;;;;;;;0.60;0.60;;;6.20;99.90;;;;;;5029377;28;20198;-73
2023/10/22 10:30:39;;;;;;;0.50;0.50;;;6.10;99.90;;;;;;4984141;28;20682;-72
2023/10/22 10:33:05;;;;;;;0.60;0.60;;;6.10;99.90;;;;;;4999572;28;20279;-73
2023/10/22 10:35:44;;;;;;;0.60;0.60;;;6.10;99.90;;;;;;5009233;28;20234;-74
2023/10/22 10:38:15;;;;;;;0.60;0.60;;;6.10;99.90;;;;;;5010024;28;20232;-71
2023/10/22 10:44:53;;;;;;;0.50;0.50;;;6.00;99.90;;;;;;4976741;28;20510;-68
2023/10/22 10:48:10;;;;;;;0.47;0.47;;;5.90;99.90;;;;;;5006677;28;20219;-69
2023/10/22 10:50:42;;;;;;;0.60;0.60;;;6.00;99.90;;;;;;4943256;28;20226;-69
2023/10/22 10:53:08;;;;;;;0.50;0.50;;;6.10;99.90;;;;;;5011620;28;20207;-69
2023/10/22 10:55:34;;;;;;;0.40;0.40;;;6.10;99.90;;;;;;5080956;28;20265;-66
2023/10/22 10:58:03;;;;;;;0.50;0.50;;;6.20;99.90;;;;;;5090761;28;20192;-66
2023/10/22 11:00:30;;;;;;;0.68;0.68;;;6.20;99.90;;;;;;5090639;28;20197;-67
2023/10/22 11:07:13;;;;;;;0.50;0.50;;;6.30;99.90;;;;;;5029112;28;20213;-68
2023/10/22 11:09:57;;;;;;;0.63;0.63;;;6.30;99.90;;;;;;5009731;28;20217;-69
2023/10/22 11:12:25;;;;;;;0.60;0.60;;;6.40;99.90;;;;;;5009172;28;20213;-67
2023/10/22 11:14:55;;;;;;;0.50;0.50;;;6.40;99.90;;;;;;5012138;28;20201;-68
2023/10/22 11:17:21;;;;;;;0.80;0.80;;;6.40;99.90;;;;;;5027660;28;20657;-66
2023/10/22 11:23:54;;;;;;;0.40;0.40;;;6.50;99.90;;;;;;5022911;28;20220;-69
2023/10/22 11:30:03;;;;;;;0.50;0.50;;;6.60;99.90;;;;;;4973130;28;20753;-67
2023/10/22 11:43:05;;;;;;;0.50;0.50;;;6.80;99.90;;;;;;4897414;28;20207;-71
2023/10/22 11:49:19;;;;;;;0.52;0.52;;;6.70;99.90;;;;;;4962122;28;20276;-69
2023/10/22 12:02:50;;;;;;;0.50;0.50;;;6.70;99.90;;;;;;4951762;29;20211;-75
2023/10/22 12:05:16;;;;;;;0.50;0.50;;;6.70;99.90;;;;;;4972176;28;20212;-71
2023/10/22 12:08:18;;;;;;;0.50;0.50;;;6.80;99.90;;;;;;4972400;28;20330;-74
2023/10/22 12:11:11;;;;;;;0.60;0.60;;;6.80;99.90;;;;;;4972504;28;20188;-73
2023/10/22 12:13:51;;;;;;;0.55;0.55;;;6.90;99.90;;;;;;4915527;29;20222;-70
2023/10/22 12:17:16;;;;;;;0.70;0.70;;;6.80;99.90;;;;;;4987025;28;20736;-70
2023/10/22 12:19:43;;;;;;;0.50;0.50;;;6.80;99.90;;;;;;4937453;28;20575;-70
2023/10/22 12:22:09;;;;;;;0.70;0.70;;;6.80;99.90;;;;;;4986514;28;20443;-70
2023/10/22 12:28:25;;;;;;;0.57;0.57;;;6.80;99.90;;;;;;4902535;29;20273;-71
2023/10/22 12:30:51;;;;;;;0.50;0.50;;;6.80;99.90;;;;;;4916482;28;20266;-71
2023/10/22 12:33:17;;;;;;;0.50;0.50;;;6.80;99.90;;;;;;5015415;28;20260;-68
2023/10/22 12:35:43;;;;;;;0.70;0.70;;;6.80;99.90;;;;;;5069440;28;20255;-69
2023/10/22 12:38:22;;;;;;;1.30;1.20;;;6.80;99.90;;;;;;5068531;28;20720;-70
2023/10/22 12:40:48;;;;;;;0.70;0.70;;;6.90;99.90;;;;;;5050875;28;20204;-70
2023/10/22 12:43:14;;;;;;;0.50;0.50;;;6.90;99.90;;;;;;5069776;28;20193;-70
2023/10/22 12:50:28;;;;;;;;;;;;;;;;;;;;;
2023/10/22 12:57:00;;;;;;;0.57;0.57;;;6.80;99.90;;;;;;5006960;28;20703;-71
2023/10/22 13:00:12;;;;;;;0.68;0.68;;;6.80;99.90;;;;;;5008378;28;20321;-70
2023/10/22 13:02:38;;;;;;;0.70;0.70;;;6.80;99.90;;;;;;4966929;28;20313;-70
2023/10/22 13:06:01;;;;;;;0.70;0.70;;;6.80;99.90;;;;;;4968669;28;20209;-72
2023/10/22 13:08:26;;;;;;;0.65;0.65;;;6.80;99.90;;;;;;4931087;29;20741;-71
2023/10/22 13:10:52;;;;;;;0.70;0.70;;;6.80;99.90;;;;;;4929947;29;20220;-71
2023/10/22 13:13:18;;;;;;;0.60;0.60;;;6.80;99.90;;;;;;4913863;29;20733;-70
2023/10/22 13:16:17;;;;;;;0.60;0.60;;;6.80;99.90;;;;;;4929561;29;20351;-71
2023/10/22 13:18:43;;;;;;;0.55;0.55;;;6.80;99.90;;;;;;4911358;29;20222;-71
2023/10/22 13:21:09;;;;;;;0.60;0.60;;;6.80;99.90;;;;;;4911718;29;20218;-70
2023/10/22 13:23:45;;;;;;;0.70;0.70;;;6.90;99.90;;;;;;4910692;29;20713;-71
2023/10/22 13:26:11;;;;;;;0.50;0.50;;;6.80;99.90;;;;;;4910187;29;20209;-70
2023/10/22 13:28:37;;;;;;;0.60;0.60;;;6.90;99.90;;;;;;4934741;29;20213;-72
2023/10/22 13:31:03;;;;;;;0.70;0.70;;;6.90;99.90;;;;;;4950707;29;20736;-71
2023/10/22 13:34:03;;;;;;;;;;;;;;;;;;;;;
2023/10/22 13:37:09;;;;;;;0.60;0.60;;;6.90;99.90;;;;;;4952414;29;20295;-71
2023/10/22 13:39:34;;;;;;;0.70;0.70;;;6.90;99.90;;;;;;5000103;28;20209;-71
2023/10/22 13:42:00;;;;;;;0.52;0.52;;;6.80;99.90;;;;;;5026420;28;20205;-71
2023/10/22 13:45:04;;;;;;;0.50;0.50;;;6.70;99.90;;;;;;5032782;28;20214;-72
2023/10/22 13:50:41;;;;;;;0.63;0.63;;;6.60;99.90;;;;;;5072565;28;20214;-72
2023/10/22 13:53:09;;;;;;;0.70;0.70;;;6.50;99.90;;;;;;5093205;28;20327;-70
2023/10/22 13:56:30;;;;;;;0.60;0.60;;;6.40;99.90;;;;;;5112845;28;20191;-70
2023/10/22 13:59:40;;;;;;;0.60;0.60;;;6.40;99.90;;;;;;5030953;28;20226;-74
2023/10/22 14:02:31;;;;;;;0.60;0.60;;;6.40;99.90;;;;;;4952235;29;20213;-73
2023/10/22 14:04:57;;;;;;;0.60;0.60;;;6.40;99.90;;;;;;4952486;28;20227;-74
2023/10/22 14:07:23;;;;;;;0.55;0.55;;;6.30;99.90;;;;;;4935059;29;20219;-73
2023/10/22 14:09:49;;;;;;;1.15;1.05;;;6.30;99.90;;;;;;4950827;29;20205;-73
2023/10/22 14:12:14;;;;;;;0.50;0.50;;;6.30;99.90;;;;;;4937668;28;20239;-73
2023/10/22 14:14:40;;;;;;;0.50;0.50;;;6.30;99.90;;;;;;4969617;28;20250;-73
2023/10/22 14:17:06;;;;;;;0.60;0.60;;;6.30;99.90;;;;;;4969858;28;20200;-71
2023/10/22 14:19:33;;;;;;;0.43;0.43;;;6.30;99.90;;;;;;4969542;28;20273;-72
2023/10/22 14:21:59;;;;;;;0.60;0.60;;;6.30;99.90;;;;;;4969353;28;20258;-72
2023/10/22 14:24:25;;;;;;;0.50;0.50;;;6.20;99.90;;;;;;4970369;28;20729;-72
2023/10/22 14:27:19;;;;;;;0.57;0.57;;;6.20;99.90;;;;;;4971119;28;20200;-73
2023/10/22 14:29:44;;;;;;;0.70;0.70;;;6.20;99.90;;;;;;4954343;28;20208;-71
2023/10/22 14:35:44;;;;;;;0.50;0.50;;;6.20;99.90;;;;;;5006078;28;20221;-70
2023/10/22 14:38:37;;;;;;;0.57;0.57;;;6.30;99.90;;;;;;5047756;28;20289;-66
2023/10/22 14:41:03;;;;;;;0.50;0.50;;;6.20;99.90;;;;;;4990663;28;20334;-69
2023/10/22 14:44:23;;;;;;;0.68;0.60;;;6.30;99.90;;;;;;4990050;28;20568;-72
2023/10/22 14:46:50;;;;;;;0.52;0.52;;;6.30;99.90;;;;;;4960213;28;20211;-71
2023/10/22 14:49:48;;;;;;;0.60;0.60;;;6.30;99.90;;;;;;5009040;28;20195;-72
2023/10/22 14:52:47;;;;;;;0.65;0.65;;;6.30;99.90;;;;;;4950172;28;20275;-73
2023/10/22 14:55:38;;;;;;;0.50;0.50;;;6.20;99.90;;;;;;4979076;28;20258;-73
2023/10/22 14:58:06;;;;;;;0.60;0.60;;;6.20;99.90;;;;;;4989447;28;20725;-73
2023/10/22 15:00:32;;;;;;;0.50;0.50;;;6.20;99.90;;;;;;4989201;28;20601;-72
2023/10/22 15:03:07;;;;;;;0.50;0.50;;;6.10;99.90;;;;;;4991565;28;20298;-72
2023/10/22 15:08:43;;;;;;;0.60;0.60;;;6.00;99.90;;;;;;4961336;28;20211;-70
2023/10/22 15:11:14;;;;;;;1.20;1.20;;;6.10;99.90;;;;;;4987922;28;20262;-69
2023/10/22 15:13:41;;;;;;;1.20;1.10;;;6.00;99.90;;;;;;4987649;28;20211;-70
2023/10/22 15:16:10;;;;;;;1.85;1.60;;;6.00;99.90;;;;;;4989341;28;20195;-70
2023/10/22 15:19:03;;;;;;;2.88;2.60;;;6.00;99.90;;;;;;5025275;28;20205;-71
2023/10/22 15:22:15;;;;;;;0.68;0.68;;;6.00;99.90;;;;;;5049283;28;20256;-70
2023/10/22 15:28:13;;;;;;;1.50;1.10;;;6.00;99.90;;;;;;4990728;28;20254;-69
2023/10/22 15:32:03;;;;;;;;;;;;;;;;;;;;;
2023/10/22 15:41:47;;;;;;;0.60;0.60;;;5.90;99.90;;;;;;4858038;29;20211;-69
2023/10/22 15:44:13;;;;;;;0.60;0.60;;;5.80;99.90;;;;;;4873673;29;20208;-70
2023/10/22 15:46:39;;;;;;;0.60;0.60;;;5.80;99.90;;;;;;4868750;29;20234;-70
2023/10/22 15:49:04;;;;;;;0.60;0.60;;;5.80;99.90;;;;;;4873124;29;20223;-70
2023/10/22 15:51:30;;;;;;;1.25;1.15;;;5.80;99.90;;;;;;4872763;29;21019;-70
2023/10/22 15:53:56;;;;;;;0.50;0.50;;;5.70;99.90;;;;;;4888995;29;20241;-70
2023/10/22 15:56:23;;;;;;;1.10;1.10;;;5.70;99.90;;;;;;4910078;29;20222;-69
2023/10/22 15:58:55;;;;;;;0.73;0.73;;;5.70;99.90;;;;;;4910385;29;20210;-68
2023/10/22 16:02:18;;;;;;;0.60;0.60;;;5.70;99.90;;;;;;4910162;29;20305;-70
2023/10/22 16:04:46;;;;;;;0.50;0.50;;;5.60;99.90;;;;;;4923602;28;20247;-69
2023/10/22 16:07:12;;;;;;;0.55;0.55;;;5.60;99.90;;;;;;4967421;28;20207;-67
2023/10/22 16:09:38;;;;;;;0.55;0.55;;;5.60;99.90;;;;;;5004630;28;20206;-68
2023/10/22 16:12:49;;;;;;;1.20;1.10;;;5.50;99.90;;;;;;5026309;28;20210;-70
2023/10/22 16:15:19;;;;;;;1.15;1.05;;;5.60;99.90;;;;;;5042073;28;20205;-69
2023/10/22 16:17:45;;;;;;;0.60;0.60;;;5.60;99.90;;;;;;5068628;28;20196;-67
2023/10/22 16:20:12;;;;;;;0.70;0.70;;;5.60;99.90;;;;;;5069215;28;20193;-70
2023/10/22 16:22:38;;;;;;;0.82;0.82;;;5.50;99.90;;;;;;5069050;28;20281;-71
2023/10/22 16:25:04;;;;;;;0.70;0.70;;;5.50;99.90;;;;;;5068558;28;20315;-71
2023/10/22 16:27:33;;;;;;;0.50;0.50;;;5.50;99.90;;;;;;5079746;28;20733;-71
2023/10/22 16:29:58;;;;;;;0.82;0.82;;;5.50;99.90;;;;;;5088623;28;20192;-71
2023/10/22 16:32:24;;;;;;;0.82;0.82;;;5.50;99.90;;;;;;5070867;28;20287;-70
2023/10/22 16:34:50;;;;;;;2.67;1.85;;;5.40;99.90;;;;;;5088587;28;20558;-70
2023/10/22 16:37:15;;;;;;;0.65;0.65;;;5.40;99.90;;;;;;5071705;28;20196;-70
2023/10/22 16:39:41;;;;;;;2.28;2.13;;;5.40;99.90;;;;;;5060854;28;20301;-71
2023/10/22 16:42:07;;;;;;;2.15;1.85;;;5.40;99.90;;;;;;5089614;28;20659;-70
2023/10/22 16:44:33;;;;;;;0.60;0.60;;;5.40;99.90;;;;;;5108727;28;20219;-70